KMHT/MHT METAR and TAF weather

Enter ICAO airport designator
Station Type Date Time Source
KMHT METAR 2021/03/05 17:53 UTC NOAA

KMHT 051753Z 32011G18KT 10SM BKN120 BKN200 M03/M23 A2966 RMK AO2 SLP064 T10281228 11028 21067 58015


Station Type Date Time Source
KMHT Decoded METAR 2021/03/05 17:53 UTC NOAA

MANCHESTER AIRPORT, NH, United States (KMHT) 42-56N 071-26W 81M
Mar 05, 2021 - 12:53 PM EST / 2021.03.05 1753 UTC
Wind: from the NW (320 degrees) at 13 MPH (11 KT) gusting to 21 MPH (18 KT):0
Visibility: 10 mile(s):0
Sky conditions: mostly cloudy
Temperature: 27.0 F (-2.8 C)
Windchill: 15 F (-9 C):1
Dew Point: -9.0 F (-22.8 C)
Relative Humidity: 19%
Pressure (altimeter): 29.66 in. Hg (1004 hPa)
Pressure tendency: 0.04 inches (1.5 hPa) lower than three hours ago
ob: KMHT 051753Z 32011G18KT 10SM BKN120 BKN200 M03/M23 A2966 RMK AO2 SLP064 T10281228 11028 21067 58015
cycle: 18

Station Type Date Time Source
KMHT TAF 2021/03/05 18:36 UTC NOAA

TAF KMHT 051733Z 0518/0618 27010G18KT P6SM OVC100
FM060000 30012KT P6SM BKN250
FM061200 29005KT P6SM FEW250

Example: see airport list